New Orleans, Louisiana
Traffic Map
Current Weather Conditions
New Orleans, Louisiana
Clear
Clear
82°
Feels Like: 89°
Wind Chill: 82° Ceiling: Unl
Heat Index: 89° Visibility: 10mi
Dew Point: 76° Wind: 10mph
Humidity: 82% Direction: 210° (SSW)
Pressure: 29.99in Gusts: 0mph
Raw Report DataKNEW 182353Z 21009KT 10SM CLR 28/24 A2999 RMK AO2 SLP150 T02780244 10283 20256 56005 $
Traffic Incident Summary
Active as of:
Severity:
Category:
InformationThere was an issue retrieving the traffic information for this location. Please try a different location or try again shortly.
Advertisements